sensor_id;sensor_type;location;lat;lon;timestamp;pressure;altitude;pressure_sealevel;temperature;humidity
63405;BME280;49541;57.840;12.306;2022-07-03T00:02:24;101084.84;;;17.54;65.47
63405;BME280;49541;57.840;12.306;2022-07-03T00:07:24;101075.59;;;17.49;65.81
63405;BME280;49541;57.840;12.306;2022-07-03T00:12:24;101076.97;;;17.86;64.25
63405;BME280;49541;57.840;12.306;2022-07-03T00:17:25;101082.84;;;17.89;64.08
63405;BME280;49541;57.840;12.306;2022-07-03T00:22:25;101073.06;;;17.72;63.75
63405;BME280;49541;57.840;12.306;2022-07-03T00:27:26;101070.34;;;17.64;63.90
63405;BME280;49541;57.840;12.306;2022-07-03T00:32:26;101066.00;;;17.63;64.36
63405;BME280;49541;57.840;12.306;2022-07-03T00:37:27;101066.31;;;17.35;64.21
63405;BME280;49541;57.840;12.306;2022-07-03T00:42:27;101060.91;;;17.35;64.39
63405;BME280;49541;57.840;12.306;2022-07-03T00:47:28;101058.16;;;17.02;65.29
63405;BME280;49541;57.840;12.306;2022-07-03T00:52:28;101060.31;;;16.90;64.91
63405;BME280;49541;57.840;12.306;2022-07-03T00:57:30;101065.19;;;16.95;64.08
63405;BME280;49541;57.840;12.306;2022-07-03T01:23:30;101054.34;;;17.21;63.14
63405;BME280;49541;57.840;12.306;2022-07-03T01:28:32;101058.19;;;16.68;64.61
63405;BME280;49541;57.840;12.306;2022-07-03T01:33:32;101054.88;;;16.13;66.45
63405;BME280;49541;57.840;12.306;2022-07-03T01:38:37;101045.53;;;16.00;66.15
63405;BME280;49541;57.840;12.306;2022-07-03T01:43:59;101051.44;;;16.03;65.51
63405;BME280;49541;57.840;12.306;2022-07-03T01:48:58;101054.47;;;15.82;65.43
63405;BME280;49541;57.840;12.306;2022-07-03T01:53:59;101048.75;;;15.77;65.75
63405;BME280;49541;57.840;12.306;2022-07-03T01:58:59;101048.75;;;15.77;64.86
63405;BME280;49541;57.840;12.306;2022-07-03T02:04:03;101050.09;;;15.63;66.01
63405;BME280;49541;57.840;12.306;2022-07-03T02:09:05;101046.91;;;15.60;65.24
63405;BME280;49541;57.840;12.306;2022-07-03T02:14:10;101051.63;;;15.66;65.03
63405;BME280;49541;57.840;12.306;2022-07-03T02:19:11;101053.56;;;15.55;65.77
63405;BME280;49541;57.840;12.306;2022-07-03T02:29:17;101057.16;;;15.28;67.23
63405;BME280;49541;57.840;12.306;2022-07-03T02:34:22;101056.78;;;15.41;67.16
63405;BME280;49541;57.840;12.306;2022-07-03T02:39:24;101065.34;;;15.27;67.55
63405;BME280;49541;57.840;12.306;2022-07-03T02:54:44;101060.06;;;15.17;67.69
63405;BME280;49541;57.840;12.306;2022-07-03T02:59:48;101060.59;;;15.21;67.66
63405;BME280;49541;57.840;12.306;2022-07-03T03:05:00;101061.22;;;15.14;68.04
63405;BME280;49541;57.840;12.306;2022-07-03T03:10:01;101075.84;;;15.02;68.70
63405;BME280;49541;57.840;12.306;2022-07-03T03:15:02;101065.56;;;14.98;69.47
63405;BME280;49541;57.840;12.306;2022-07-03T03:20:03;101066.38;;;15.26;69.32
63405;BME280;49541;57.840;12.306;2022-07-03T03:25:04;101059.28;;;15.07;71.10
63405;BME280;49541;57.840;12.306;2022-07-03T03:30:04;101066.22;;;15.45;70.64
63405;BME280;49541;57.840;12.306;2022-07-03T03:35:06;101058.47;;;15.78;71.15
63405;BME280;49541;57.840;12.306;2022-07-03T03:40:07;101069.03;;;15.97;70.62
63405;BME280;49541;57.840;12.306;2022-07-03T03:45:07;101070.81;;;16.75;68.66
63405;BME280;49541;57.840;12.306;2022-07-03T03:50:08;101060.13;;;16.23;69.82
63405;BME280;49541;57.840;12.306;2022-07-03T03:55:08;101057.84;;;16.36;70.23
63405;BME280;49541;57.840;12.306;2022-07-03T04:00:09;101061.84;;;16.58;69.48
63405;BME280;49541;57.840;12.306;2022-07-03T04:05:09;101064.44;;;16.76;68.98
63405;BME280;49541;57.840;12.306;2022-07-03T04:10:10;101063.16;;;16.81;69.30
63405;BME280;49541;57.840;12.306;2022-07-03T04:15:11;101060.31;;;16.56;69.51
63405;BME280;49541;57.840;12.306;2022-07-03T04:20:11;101065.28;;;17.19;68.16
63405;BME280;49541;57.840;12.306;2022-07-03T04:25:11;101060.66;;;16.87;67.39
63405;BME280;49541;57.840;12.306;2022-07-03T04:30:11;101066.16;;;17.45;67.25
63405;BME280;49541;57.840;12.306;2022-07-03T04:35:12;101057.56;;;17.41;66.06
63405;BME280;49541;57.840;12.306;2022-07-03T04:40:12;101058.66;;;16.97;67.45
63405;BME280;49541;57.840;12.306;2022-07-03T04:45:13;101055.06;;;17.56;66.45
63405;BME280;49541;57.840;12.306;2022-07-03T04:50:13;101060.25;;;17.33;66.95
63405;BME280;49541;57.840;12.306;2022-07-03T04:55:13;101077.63;;;17.79;65.31
63405;BME280;49541;57.840;12.306;2022-07-03T05:00:14;101077.44;;;17.73;65.22
63405;BME280;49541;57.840;12.306;2022-07-03T05:05:14;101065.34;;;17.69;65.75
63405;BME280;49541;57.840;12.306;2022-07-03T05:10:14;101066.69;;;18.14;64.08
63405;BME280;49541;57.840;12.306;2022-07-03T05:15:14;101078.66;;;18.03;64.96
63405;BME280;49541;57.840;12.306;2022-07-03T05:20:15;101062.97;;;18.07;64.79
63405;BME280;49541;57.840;12.306;2022-07-03T05:25:25;101078.13;;;18.24;64.66
63405;BME280;49541;57.840;12.306;2022-07-03T05:30:26;101066.97;;;18.27;65.15
63405;BME280;49541;57.840;12.306;2022-07-03T05:35:26;101064.63;;;17.42;69.03
63405;BME280;49541;57.840;12.306;2022-07-03T05:40:26;101069.50;;;17.30;70.06
63405;BME280;49541;57.840;12.306;2022-07-03T05:45:26;101063.16;;;17.64;68.68
63405;BME280;49541;57.840;12.306;2022-07-03T05:50:27;101066.69;;;17.73;69.43
63405;BME280;49541;57.840;12.306;2022-07-03T05:55:27;101072.91;;;18.06;70.23
63405;BME280;49541;57.840;12.306;2022-07-03T06:00:27;101061.31;;;17.89;70.44
63405;BME280;49541;57.840;12.306;2022-07-03T06:05:28;101066.00;;;17.63;72.24
63405;BME280;49541;57.840;12.306;2022-07-03T06:10:29;101057.19;;;18.26;69.65
63405;BME280;49541;57.840;12.306;2022-07-03T06:15:29;101064.97;;;17.72;72.85
63405;BME280;49541;57.840;12.306;2022-07-03T06:20:29;101055.59;;;17.92;72.05
63405;BME280;49541;57.840;12.306;2022-07-03T06:25:29;101051.81;;;18.26;70.79
63405;BME280;49541;57.840;12.306;2022-07-03T06:30:30;101041.94;;;18.02;72.46
63405;BME280;49541;57.840;12.306;2022-07-03T06:35:30;101043.09;;;18.24;70.75
63405;BME280;49541;57.840;12.306;2022-07-03T06:40:30;101046.75;;;18.39;71.43
63405;BME280;49541;57.840;12.306;2022-07-03T06:45:30;101041.91;;;18.66;71.61
63405;BME280;49541;57.840;12.306;2022-07-03T06:50:30;101031.63;;;18.70;69.63
63405;BME280;49541;57.840;12.306;2022-07-03T06:55:31;101028.72;;;18.71;69.63
63405;BME280;49541;57.840;12.306;2022-07-03T07:00:31;101031.44;;;18.79;69.35
63405;BME280;49541;57.840;12.306;2022-07-03T07:05:31;101031.97;;;19.06;68.73
63405;BME280;49541;57.840;12.306;2022-07-03T07:10:31;101026.09;;;19.26;68.51
63405;BME280;49541;57.840;12.306;2022-07-03T07:15:32;101023.63;;;19.16;68.61
63405;BME280;49541;57.840;12.306;2022-07-03T07:20:32;101018.84;;;19.26;69.12
63405;BME280;49541;57.840;12.306;2022-07-03T07:25:32;101020.91;;;18.93;70.59
63405;BME280;49541;57.840;12.306;2022-07-03T07:30:32;101009.69;;;18.81;70.40
63405;BME280;49541;57.840;12.306;2022-07-03T07:35:32;101007.31;;;18.38;72.53
63405;BME280;49541;57.840;12.306;2022-07-03T07:40:33;101003.00;;;19.00;71.13
63405;BME280;49541;57.840;12.306;2022-07-03T07:45:33;101009.31;;;18.84;71.15
63405;BME280;49541;57.840;12.306;2022-07-03T07:50:34;101011.25;;;19.30;71.20
63405;BME280;49541;57.840;12.306;2022-07-03T07:55:34;101002.47;;;19.28;70.23
63405;BME280;49541;57.840;12.306;2022-07-03T08:00:34;101005.34;;;19.03;72.11
63405;BME280;49541;57.840;12.306;2022-07-03T08:05:35;100996.91;;;19.06;70.70
63405;BME280;49541;57.840;12.306;2022-07-03T08:10:38;100982.75;;;18.33;73.45
63405;BME280;49541;57.840;12.306;2022-07-03T08:15:39;100987.03;;;18.59;73.57
63405;BME280;49541;57.840;12.306;2022-07-03T08:20:40;100976.00;;;18.69;73.33
63405;BME280;49541;57.840;12.306;2022-07-03T08:25:40;100971.94;;;18.41;73.47
63405;BME280;49541;57.840;12.306;2022-07-03T08:30:40;100973.19;;;18.62;73.11
63405;BME280;49541;57.840;12.306;2022-07-03T08:35:40;100970.69;;;18.13;74.67
63405;BME280;49541;57.840;12.306;2022-07-03T08:40:40;100985.31;;;18.18;75.62
63405;BME280;49541;57.840;12.306;2022-07-03T08:45:43;100987.09;;;18.42;73.86
63405;BME280;49541;57.840;12.306;2022-07-03T08:50:43;101001.03;;;18.54;73.59
63405;BME280;49541;57.840;12.306;2022-07-03T08:55:44;100990.28;;;18.46;73.77
63405;BME280;49541;57.840;12.306;2022-07-03T09:00:44;100993.16;;;18.36;72.73
63405;BME280;49541;57.840;12.306;2022-07-03T09:05:45;100988.13;;;18.33;73.72
63405;BME280;49541;57.840;12.306;2022-07-03T09:10:46;100971.03;;;18.18;73.28
63405;BME280;49541;57.840;12.306;2022-07-03T09:15:46;100990.59;;;18.04;72.80
63405;BME280;49541;57.840;12.306;2022-07-03T09:20:46;100974.28;;;17.72;73.80
63405;BME280;49541;57.840;12.306;2022-07-03T09:25:50;100975.66;;;17.60;75.54
63405;BME280;49541;57.840;12.306;2022-07-03T09:31:00;100983.38;;;17.55;73.88
63405;BME280;49541;57.840;12.306;2022-07-03T09:36:00;100986.56;;;17.83;73.57
63405;BME280;49541;57.840;12.306;2022-07-03T09:41:01;100997.16;;;17.93;72.59
63405;BME280;49541;57.840;12.306;2022-07-03T09:46:01;101001.72;;;17.76;73.57
63405;BME280;49541;57.840;12.306;2022-07-03T09:51:12;101007.06;;;18.09;72.62
63405;BME280;49541;57.840;12.306;2022-07-03T09:56:13;101012.41;;;18.25;72.27
63405;BME280;49541;57.840;12.306;2022-07-03T10:01:18;100996.50;;;17.83;73.06
63405;BME280;49541;57.840;12.306;2022-07-03T10:06:19;100980.50;;;17.89;73.19
63405;BME280;49541;57.840;12.306;2022-07-03T10:11:19;100963.19;;;17.75;74.17
63405;BME280;49541;57.840;12.306;2022-07-03T10:16:19;100969.41;;;17.68;74.37
63405;BME280;49541;57.840;12.306;2022-07-03T10:21:20;100968.75;;;17.90;73.65
63405;BME280;49541;57.840;12.306;2022-07-03T10:26:20;100972.41;;;18.06;73.43
63405;BME280;49541;57.840;12.306;2022-07-03T10:31:20;100959.97;;;17.80;74.28
63405;BME280;49541;57.840;12.306;2022-07-03T10:36:20;100959.25;;;18.11;73.79
63405;BME280;49541;57.840;12.306;2022-07-03T10:41:39;100963.66;;;18.04;74.18
63405;BME280;49541;57.840;12.306;2022-07-03T10:46:59;100947.09;;;18.15;73.47
63405;BME280;49541;57.840;12.306;2022-07-03T10:52:00;100938.00;;;18.24;72.31
63405;BME280;49541;57.840;12.306;2022-07-03T11:07:20;100944.50;;;17.90;75.08
63405;BME280;49541;57.840;12.306;2022-07-03T11:12:52;100949.78;;;18.23;73.70
63405;BME280;49541;57.840;12.306;2022-07-03T11:17:40;100942.88;;;18.52;74.26
63405;BME280;49541;57.840;12.306;2022-07-03T11:33:51;100952.13;;;18.57;74.50
63405;BME280;49541;57.840;12.306;2022-07-03T11:54:05;100935.59;;;18.29;76.62
63405;BME280;49541;57.840;12.306;2022-07-03T11:59:05;100931.19;;;18.68;75.75
63405;BME280;49541;57.840;12.306;2022-07-03T12:04:07;100928.53;;;18.28;77.81
63405;BME280;49541;57.840;12.306;2022-07-03T12:09:15;100934.53;;;18.38;77.80
63405;BME280;49541;57.840;12.306;2022-07-03T12:14:15;100890.63;;;17.90;77.66
63405;BME280;49541;57.840;12.306;2022-07-03T12:19:15;100871.56;;;18.00;79.28
63405;BME280;49541;57.840;12.306;2022-07-03T12:24:15;100848.25;;;17.84;79.39
63405;BME280;49541;57.840;12.306;2022-07-03T12:29:16;100851.97;;;19.15;78.30
63405;BME280;49541;57.840;12.306;2022-07-03T12:34:17;100868.06;;;20.42;72.86
63405;BME280;49541;57.840;12.306;2022-07-03T12:39:17;100871.81;;;22.38;70.58
63405;BME280;49541;57.840;12.306;2022-07-03T12:44:17;100873.84;;;22.23;65.43
63405;BME280;49541;57.840;12.306;2022-07-03T12:49:20;100873.41;;;20.93;69.39
63405;BME280;49541;57.840;12.306;2022-07-03T12:59:27;100880.59;;;20.50;70.09
63405;BME280;49541;57.840;12.306;2022-07-03T13:09:34;100819.97;;;19.41;74.50
63405;BME280;49541;57.840;12.306;2022-07-03T13:14:35;100827.59;;;19.38;73.29
63405;BME280;49541;57.840;12.306;2022-07-03T13:19:35;100860.47;;;19.41;72.50
63405;BME280;49541;57.840;12.306;2022-07-03T13:24:35;100871.25;;;18.57;75.52
63405;BME280;49541;57.840;12.306;2022-07-03T13:29:35;100884.91;;;19.10;73.20
63405;BME280;49541;57.840;12.306;2022-07-03T13:34:36;100894.44;;;18.98;73.12
63405;BME280;49541;57.840;12.306;2022-07-03T13:39:36;100896.97;;;18.99;73.65
63405;BME280;49541;57.840;12.306;2022-07-03T13:44:36;100892.09;;;19.33;74.29
63405;BME280;49541;57.840;12.306;2022-07-03T13:49:37;100887.44;;;20.09;71.86
63405;BME280;49541;57.840;12.306;2022-07-03T13:54:37;100897.69;;;21.58;66.98
63405;BME280;49541;57.840;12.306;2022-07-03T13:59:37;100890.72;;;22.93;62.01
63405;BME280;49541;57.840;12.306;2022-07-03T14:04:37;100886.00;;;24.14;57.71
63405;BME280;49541;57.840;12.306;2022-07-03T14:09:38;100887.72;;;25.10;58.29
63405;BME280;49541;57.840;12.306;2022-07-03T14:14:38;100871.59;;;24.51;56.15
63405;BME280;49541;57.840;12.306;2022-07-03T14:19:38;100869.50;;;24.53;55.14
63405;BME280;49541;57.840;12.306;2022-07-03T14:24:38;100878.78;;;23.81;56.18
63405;BME280;49541;57.840;12.306;2022-07-03T14:29:39;100875.66;;;22.77;59.71
63405;BME280;49541;57.840;12.306;2022-07-03T14:34:58;100878.16;;;22.72;60.86
63405;BME280;49541;57.840;12.306;2022-07-03T14:39:58;100863.31;;;22.55;59.44
63405;BME280;49541;57.840;12.306;2022-07-03T14:44:58;100875.84;;;22.62;61.97
63405;BME280;49541;57.840;12.306;2022-07-03T14:49:59;100872.47;;;22.54;62.30
63405;BME280;49541;57.840;12.306;2022-07-03T14:55:00;100869.66;;;23.02;62.65
63405;BME280;49541;57.840;12.306;2022-07-03T15:00:10;100871.09;;;22.84;60.20
63405;BME280;49541;57.840;12.306;2022-07-03T15:05:11;100871.72;;;23.00;61.70
63405;BME280;49541;57.840;12.306;2022-07-03T15:10:15;100866.03;;;23.81;56.34
63405;BME280;49541;57.840;12.306;2022-07-03T15:15:15;100863.13;;;23.56;55.35
63405;BME280;49541;57.840;12.306;2022-07-03T15:20:16;100853.16;;;23.23;57.08
63405;BME280;49541;57.840;12.306;2022-07-03T15:25:17;100842.44;;;23.68;58.15
63405;BME280;49541;57.840;12.306;2022-07-03T15:30:18;100832.25;;;23.30;56.86
63405;BME280;49541;57.840;12.306;2022-07-03T15:35:20;100830.28;;;23.71;57.33
63405;BME280;49541;57.840;12.306;2022-07-03T15:40:24;100826.53;;;24.24;54.44
63405;BME280;49541;57.840;12.306;2022-07-03T15:45:32;100812.72;;;24.25;54.32
63405;BME280;49541;57.840;12.306;2022-07-03T15:50:43;100806.72;;;23.58;56.53
63405;BME280;49541;57.840;12.306;2022-07-03T15:55:48;100798.16;;;24.06;54.90
63405;BME280;49541;57.840;12.306;2022-07-03T16:00:52;100806.66;;;24.62;53.31
63405;BME280;49541;57.840;12.306;2022-07-03T16:06:13;100800.66;;;24.53;51.07
63405;BME280;49541;57.840;12.306;2022-07-03T16:11:15;100794.69;;;24.63;52.02
63405;BME280;49541;57.840;12.306;2022-07-03T16:16:16;100803.56;;;24.51;50.74
63405;BME280;49541;57.840;12.306;2022-07-03T16:21:17;100817.63;;;24.10;50.22
63405;BME280;49541;57.840;12.306;2022-07-03T16:26:21;100802.00;;;24.30;51.17
63405;BME280;49541;57.840;12.306;2022-07-03T16:31:27;100797.59;;;24.36;51.26
63405;BME280;49541;57.840;12.306;2022-07-03T16:36:32;100800.56;;;24.28;50.96
63405;BME280;49541;57.840;12.306;2022-07-03T16:41:34;100819.13;;;23.99;51.45
63405;BME280;49541;57.840;12.306;2022-07-03T16:46:34;100803.84;;;22.73;53.73
63405;BME280;49541;57.840;12.306;2022-07-03T16:51:40;100799.84;;;22.36;56.37
63405;BME280;49541;57.840;12.306;2022-07-03T16:56:42;100788.91;;;21.61;59.48
63405;BME280;49541;57.840;12.306;2022-07-03T17:01:43;100770.88;;;21.75;58.69
63405;BME280;49541;57.840;12.306;2022-07-03T17:06:43;100772.75;;;21.87;58.70
63405;BME280;49541;57.840;12.306;2022-07-03T17:11:43;100773.13;;;22.33;57.74
63405;BME280;49541;57.840;12.306;2022-07-03T17:16:50;100769.59;;;22.32;58.41
63405;BME280;49541;57.840;12.306;2022-07-03T17:21:52;100766.44;;;21.67;58.71
63405;BME280;49541;57.840;12.306;2022-07-03T17:26:54;100760.59;;;21.63;58.09
63405;BME280;49541;57.840;12.306;2022-07-03T17:31:59;100752.59;;;21.48;57.98
63405;BME280;49541;57.840;12.306;2022-07-03T17:37:00;100759.34;;;21.66;58.54
63405;BME280;49541;57.840;12.306;2022-07-03T17:42:00;100761.69;;;22.37;57.78
63405;BME280;49541;57.840;12.306;2022-07-03T17:47:01;100758.78;;;22.72;57.58
63405;BME280;49541;57.840;12.306;2022-07-03T17:52:03;100758.16;;;22.77;56.35
63405;BME280;49541;57.840;12.306;2022-07-03T17:57:03;100751.25;;;23.07;56.04
63405;BME280;49541;57.840;12.306;2022-07-03T18:02:24;100755.00;;;22.93;56.83
63405;BME280;49541;57.840;12.306;2022-07-03T18:07:30;100747.84;;;23.39;56.17
63405;BME280;49541;57.840;12.306;2022-07-03T18:12:35;100738.69;;;23.26;56.91
63405;BME280;49541;57.840;12.306;2022-07-03T18:17:35;100738.50;;;22.95;57.48
63405;BME280;49541;57.840;12.306;2022-07-03T18:22:41;100731.59;;;23.12;56.88
63405;BME280;49541;57.840;12.306;2022-07-03T18:27:44;100729.13;;;22.77;57.41
63405;BME280;49541;57.840;12.306;2022-07-03T18:32:45;100719.31;;;22.89;57.60
63405;BME280;49541;57.840;12.306;2022-07-03T18:37:46;100725.38;;;22.58;57.56
63405;BME280;49541;57.840;12.306;2022-07-03T18:42:47;100715.03;;;21.94;60.68
63405;BME280;49541;57.840;12.306;2022-07-03T18:47:48;100716.13;;;22.06;60.25
63405;BME280;49541;57.840;12.306;2022-07-03T19:03:13;100705.66;;;21.89;61.04
63405;BME280;49541;57.840;12.306;2022-07-03T19:08:20;100707.94;;;21.79;62.24
63405;BME280;49541;57.840;12.306;2022-07-03T19:13:24;100713.41;;;21.93;61.77
63405;BME280;49541;57.840;12.306;2022-07-03T19:18:26;100708.59;;;21.88;61.75
63405;BME280;49541;57.840;12.306;2022-07-03T19:23:27;100705.91;;;22.01;61.19
63405;BME280;49541;57.840;12.306;2022-07-03T19:28:27;100717.34;;;21.83;61.66
63405;BME280;49541;57.840;12.306;2022-07-03T19:33:27;100717.97;;;21.85;61.43
63405;BME280;49541;57.840;12.306;2022-07-03T19:38:27;100720.84;;;21.77;61.80
63405;BME280;49541;57.840;12.306;2022-07-03T19:43:28;100720.59;;;21.65;61.78
63405;BME280;49541;57.840;12.306;2022-07-03T19:48:29;100721.75;;;21.43;62.56
63405;BME280;49541;57.840;12.306;2022-07-03T19:53:29;100727.81;;;21.45;62.31
63405;BME280;49541;57.840;12.306;2022-07-03T19:58:31;100715.16;;;21.17;62.74
63405;BME280;49541;57.840;12.306;2022-07-03T20:03:31;100712.34;;;21.39;62.30
63405;BME280;49541;57.840;12.306;2022-07-03T20:08:31;100722.91;;;21.34;62.60
63405;BME280;49541;57.840;12.306;2022-07-03T20:13:31;100713.88;;;21.13;62.87
63405;BME280;49541;57.840;12.306;2022-07-03T20:18:33;100714.31;;;20.89;64.09
63405;BME280;49541;57.840;12.306;2022-07-03T20:23:33;100715.91;;;20.76;63.87
63405;BME280;49541;57.840;12.306;2022-07-03T20:28:53;100702.19;;;20.78;64.18
63405;BME280;49541;57.840;12.306;2022-07-03T20:33:54;100698.25;;;20.80;64.83
63405;BME280;49541;57.840;12.306;2022-07-03T20:38:54;100697.84;;;20.55;65.42
63405;BME280;49541;57.840;12.306;2022-07-03T20:43:54;100695.63;;;20.59;64.75
63405;BME280;49541;57.840;12.306;2022-07-03T20:48:54;100702.09;;;20.64;65.56
63405;BME280;49541;57.840;12.306;2022-07-03T20:53:54;100684.03;;;20.43;65.47
63405;BME280;49541;57.840;12.306;2022-07-03T20:58:55;100690.03;;;20.45;65.94
63405;BME280;49541;57.840;12.306;2022-07-03T21:03:55;100686.91;;;20.42;65.88
63405;BME280;49541;57.840;12.306;2022-07-03T21:08:56;100683.47;;;20.55;66.16
63405;BME280;49541;57.840;12.306;2022-07-03T21:13:57;100687.78;;;20.49;67.87
63405;BME280;49541;57.840;12.306;2022-07-03T21:18:59;100679.63;;;20.64;68.80
63405;BME280;49541;57.840;12.306;2022-07-03T21:24:00;100681.72;;;20.19;70.03
63405;BME280;49541;57.840;12.306;2022-07-03T21:29:00;100681.00;;;20.32;70.64
63405;BME280;49541;57.840;12.306;2022-07-03T21:34:00;100677.53;;;20.16;71.05
63405;BME280;49541;57.840;12.306;2022-07-03T21:39:01;100681.00;;;20.10;70.97
63405;BME280;49541;57.840;12.306;2022-07-03T21:44:01;100672.59;;;19.98;70.45
63405;BME280;49541;57.840;12.306;2022-07-03T21:49:02;100671.81;;;20.04;69.47
63405;BME280;49541;57.840;12.306;2022-07-03T21:54:02;100676.97;;;19.99;69.63
63405;BME280;49541;57.840;12.306;2022-07-03T21:59:03;100662.34;;;19.94;69.32
63405;BME280;49541;57.840;12.306;2022-07-03T22:04:03;100677.47;;;19.37;70.98
63405;BME280;49541;57.840;12.306;2022-07-03T22:09:03;100655.34;;;19.99;71.47
63405;BME280;49541;57.840;12.306;2022-07-03T22:14:03;100657.63;;;19.81;71.05
63405;BME280;49541;57.840;12.306;2022-07-03T22:19:04;100643.78;;;19.84;72.15
63405;BME280;49541;57.840;12.306;2022-07-03T22:24:04;100653.69;;;19.98;71.31
63405;BME280;49541;57.840;12.306;2022-07-03T22:29:04;100644.78;;;20.04;71.22
63405;BME280;49541;57.840;12.306;2022-07-03T22:34:04;100617.94;;;19.75;72.62
63405;BME280;49541;57.840;12.306;2022-07-03T22:39:05;100613.16;;;19.40;73.73
63405;BME280;49541;57.840;12.306;2022-07-03T22:44:05;100618.44;;;19.49;73.51
63405;BME280;49541;57.840;12.306;2022-07-03T22:49:05;100589.78;;;19.11;75.30
63405;BME280;49541;57.840;12.306;2022-07-03T22:54:05;100575.81;;;19.08;75.49
63405;BME280;49541;57.840;12.306;2022-07-03T22:59:06;100577.72;;;19.29;74.51
63405;BME280;49541;57.840;12.306;2022-07-03T23:04:06;100582.38;;;19.35;73.44
63405;BME280;49541;57.840;12.306;2022-07-03T23:09:06;100579.63;;;19.13;72.13
63405;BME280;49541;57.840;12.306;2022-07-03T23:14:09;100572.00;;;19.17;70.53
63405;BME280;49541;57.840;12.306;2022-07-03T23:19:10;100555.25;;;19.64;69.21
63405;BME280;49541;57.840;12.306;2022-07-03T23:24:10;100559.97;;;19.77;69.56
63405;BME280;49541;57.840;12.306;2022-07-03T23:29:10;100561.81;;;19.55;69.70
63405;BME280;49541;57.840;12.306;2022-07-03T23:34:10;100553.00;;;19.47;70.17
63405;BME280;49541;57.840;12.306;2022-07-03T23:39:11;100556.59;;;18.96;72.82
63405;BME280;49541;57.840;12.306;2022-07-03T23:44:11;100543.41;;;19.22;71.95
63405;BME280;49541;57.840;12.306;2022-07-03T23:49:14;100536.84;;;19.10;73.11
63405;BME280;49541;57.840;12.306;2022-07-03T23:54:33;100529.44;;;18.97;73.63
63405;BME280;49541;57.840;12.306;2022-07-03T23:59:33;100521.34;;;18.68;75.16
